Decoded Metar for KCEU (CLEMSON in SC, USA) (IATA:CEU) | Meteo·Mobile Aviation Weather
aviador You're here:

KCEU Decoded Metar

CLEMSON in SC, USA
Report Time2019-01-21 23:54:00
UTC Time2019-01-22 00:16:26
Flight Rules vfr VFR
WindCalm
Visibility9999 m
Phenomena:N/A
Clouds:N/A
Expected CloudBase > 6,400 ft AGL from Temp-Dew spread
CeilingNone
Temp02°C (ISA -11)
Dew Point-14°C (30% RH)
AAT-1.3°C
QNH1030 hPa
Density Alt-1,030 ft
Elevation879 ft
Report Wrong Elevation
Raw Report
KCEU 212354Z AUTO 00000KT 10SM CLR 02/M14 A3043 RMK AO2 SLP312
T00171139 10056 20017 53010 $=

Extra information for KCEU:More info

Metar Taf Metar & Taf Last 4 Metars F.Rules Stats Wind Profile Meteogram Temp Stats Airport Information Weather charts Add Link Nearby VenuesMetar ALERT Operation Metar Decoded Social comments

AIRNAV info for KCEU